sensor_id;sensor_type;location;lat;lon;timestamp;P1;durP1;ratioP1;P2;durP2;ratioP2
21213;SDS011;10764;50.850;2.904;2023-02-10T00:01:31;9.10;;;5.97;;
21213;SDS011;10764;50.850;2.904;2023-02-10T00:03:58;7.00;;;5.43;;
21213;SDS011;10764;50.850;2.904;2023-02-10T00:06:25;8.57;;;5.90;;
21213;SDS011;10764;50.850;2.904;2023-02-10T00:08:54;10.20;;;6.30;;
21213;SDS011;10764;50.850;2.904;2023-02-10T00:11:23;8.80;;;6.03;;
21213;SDS011;10764;50.850;2.904;2023-02-10T00:14:11;8.63;;;5.78;;
21213;SDS011;10764;50.850;2.904;2023-02-10T00:16:38;8.48;;;6.00;;
21213;SDS011;10764;50.850;2.904;2023-02-10T00:19:05;8.18;;;5.68;;
21213;SDS011;10764;50.850;2.904;2023-02-10T00:21:32;8.23;;;5.40;;
21213;SDS011;10764;50.850;2.904;2023-02-10T00:23:59;8.10;;;5.55;;
21213;SDS011;10764;50.850;2.904;2023-02-10T00:26:26;9.18;;;5.82;;
21213;SDS011;10764;50.850;2.904;2023-02-10T00:28:53;9.27;;;5.40;;
21213;SDS011;10764;50.850;2.904;2023-02-10T00:31:20;8.52;;;5.68;;
21213;SDS011;10764;50.850;2.904;2023-02-10T00:33:47;7.60;;;5.40;;
21213;SDS011;10764;50.850;2.904;2023-02-10T00:36:15;9.38;;;5.65;;
21213;SDS011;10764;50.850;2.904;2023-02-10T00:38:42;9.45;;;5.57;;
21213;SDS011;10764;50.850;2.904;2023-02-10T00:41:14;9.05;;;5.53;;
21213;SDS011;10764;50.850;2.904;2023-02-10T00:43:42;8.20;;;5.20;;
21213;SDS011;10764;50.850;2.904;2023-02-10T00:46:14;8.02;;;5.55;;
21213;SDS011;10764;50.850;2.904;2023-02-10T00:48:43;8.50;;;5.00;;
21213;SDS011;10764;50.850;2.904;2023-02-10T00:51:11;7.78;;;5.28;;
21213;SDS011;10764;50.850;2.904;2023-02-10T00:53:39;10.25;;;5.57;;
21213;SDS011;10764;50.850;2.904;2023-02-10T00:56:06;7.60;;;5.33;;
21213;SDS011;10764;50.850;2.904;2023-02-10T00:58:33;7.00;;;5.43;;
21213;SDS011;10764;50.850;2.904;2023-02-10T01:01:01;6.75;;;5.22;;
21213;SDS011;10764;50.850;2.904;2023-02-10T01:03:28;7.65;;;5.32;;
21213;SDS011;10764;50.850;2.904;2023-02-10T01:05:56;6.85;;;5.22;;
21213;SDS011;10764;50.850;2.904;2023-02-10T01:08:23;9.00;;;5.70;;
21213;SDS011;10764;50.850;2.904;2023-02-10T01:10:56;8.80;;;5.70;;
21213;SDS011;10764;50.850;2.904;2023-02-10T01:13:35;8.63;;;5.50;;
21213;SDS011;10764;50.850;2.904;2023-02-10T01:16:04;8.43;;;5.70;;
21213;SDS011;10764;50.850;2.904;2023-02-10T01:18:36;8.37;;;5.90;;
21213;SDS011;10764;50.850;2.904;2023-02-10T01:21:10;8.30;;;5.57;;
21213;SDS011;10764;50.850;2.904;2023-02-10T01:23:39;7.38;;;5.40;;
21213;SDS011;10764;50.850;2.904;2023-02-10T01:26:06;9.05;;;5.72;;
21213;SDS011;10764;50.850;2.904;2023-02-10T01:28:35;9.82;;;5.75;;
21213;SDS011;10764;50.850;2.904;2023-02-10T01:31:11;8.20;;;5.38;;
21213;SDS011;10764;50.850;2.904;2023-02-10T01:33:40;8.20;;;5.40;;
21213;SDS011;10764;50.850;2.904;2023-02-10T01:36:15;8.38;;;5.60;;
21213;SDS011;10764;50.850;2.904;2023-02-10T01:38:43;8.02;;;5.18;;
21213;SDS011;10764;50.850;2.904;2023-02-10T01:41:12;9.75;;;5.40;;
21213;SDS011;10764;50.850;2.904;2023-02-10T01:43:55;8.85;;;5.50;;
21213;SDS011;10764;50.850;2.904;2023-02-10T01:46:32;8.17;;;5.30;;
21213;SDS011;10764;50.850;2.904;2023-02-10T01:49:05;9.18;;;5.30;;
21213;SDS011;10764;50.850;2.904;2023-02-10T01:51:38;7.22;;;5.22;;
21213;SDS011;10764;50.850;2.904;2023-02-10T01:54:11;7.68;;;5.15;;
21213;SDS011;10764;50.850;2.904;2023-02-10T01:56:42;7.80;;;5.10;;
21213;SDS011;10764;50.850;2.904;2023-02-10T01:59:12;8.15;;;5.32;;
21213;SDS011;10764;50.850;2.904;2023-02-10T02:01:40;6.00;;;4.85;;
21213;SDS011;10764;50.850;2.904;2023-02-10T02:04:07;7.88;;;5.47;;
21213;SDS011;10764;50.850;2.904;2023-02-10T02:06:35;7.20;;;5.15;;
21213;SDS011;10764;50.850;2.904;2023-02-10T02:09:02;8.25;;;5.47;;
21213;SDS011;10764;50.850;2.904;2023-02-10T02:17:10;7.37;;;5.27;;
21213;SDS011;10764;50.850;2.904;2023-02-10T02:22:59;8.40;;;5.20;;
21213;SDS011;10764;50.850;2.904;2023-02-10T02:31:10;7.40;;;5.30;;
21213;SDS011;10764;50.850;2.904;2023-02-10T02:34:06;7.93;;;5.68;;
21213;SDS011;10764;50.850;2.904;2023-02-10T02:39:33;7.65;;;5.53;;
21213;SDS011;10764;50.850;2.904;2023-02-10T02:45:03;7.63;;;5.43;;
21213;SDS011;10764;50.850;2.904;2023-02-10T02:53:39;7.80;;;6.10;;
21213;SDS011;10764;50.850;2.904;2023-02-10T02:56:33;8.57;;;6.00;;
21213;SDS011;10764;50.850;2.904;2023-02-10T03:01:49;8.37;;;6.17;;
21213;SDS011;10764;50.850;2.904;2023-02-10T03:04:23;8.43;;;6.22;;
21213;SDS011;10764;50.850;2.904;2023-02-10T03:06:54;8.23;;;6.17;;
21213;SDS011;10764;50.850;2.904;2023-02-10T03:09:21;8.27;;;6.53;;
21213;SDS011;10764;50.850;2.904;2023-02-10T03:11:48;10.00;;;7.10;;
21213;SDS011;10764;50.850;2.904;2023-02-10T03:14:15;9.65;;;6.35;;
21213;SDS011;10764;50.850;2.904;2023-02-10T03:16:42;7.95;;;6.22;;
21213;SDS011;10764;50.850;2.904;2023-02-10T03:19:08;8.95;;;6.68;;
21213;SDS011;10764;50.850;2.904;2023-02-10T03:21:35;9.52;;;6.90;;
21213;SDS011;10764;50.850;2.904;2023-02-10T03:24:02;9.50;;;6.60;;
21213;SDS011;10764;50.850;2.904;2023-02-10T03:26:30;8.80;;;6.53;;
21213;SDS011;10764;50.850;2.904;2023-02-10T03:28:57;9.27;;;6.72;;
21213;SDS011;10764;50.850;2.904;2023-02-10T03:31:23;8.70;;;6.47;;
21213;SDS011;10764;50.850;2.904;2023-02-10T03:33:50;8.55;;;6.60;;
21213;SDS011;10764;50.850;2.904;2023-02-10T03:36:17;9.07;;;6.55;;
21213;SDS011;10764;50.850;2.904;2023-02-10T03:38:44;9.32;;;6.47;;
21213;SDS011;10764;50.850;2.904;2023-02-10T03:41:11;8.85;;;6.30;;
21213;SDS011;10764;50.850;2.904;2023-02-10T03:43:39;8.87;;;6.77;;
21213;SDS011;10764;50.850;2.904;2023-02-10T03:46:09;8.35;;;6.43;;
21213;SDS011;10764;50.850;2.904;2023-02-10T03:48:37;9.20;;;6.40;;
21213;SDS011;10764;50.850;2.904;2023-02-10T03:51:05;8.40;;;6.60;;
21213;SDS011;10764;50.850;2.904;2023-02-10T03:53:33;8.57;;;6.05;;
21213;SDS011;10764;50.850;2.904;2023-02-10T03:56:00;8.10;;;6.60;;
21213;SDS011;10764;50.850;2.904;2023-02-10T03:58:27;8.15;;;6.32;;
21213;SDS011;10764;50.850;2.904;2023-02-10T04:00:54;8.18;;;6.25;;
21213;SDS011;10764;50.850;2.904;2023-02-10T04:03:21;9.27;;;6.70;;
21213;SDS011;10764;50.850;2.904;2023-02-10T04:05:48;8.95;;;6.68;;
21213;SDS011;10764;50.850;2.904;2023-02-10T04:08:15;9.38;;;6.68;;
21213;SDS011;10764;50.850;2.904;2023-02-10T04:10:42;8.60;;;6.80;;
21213;SDS011;10764;50.850;2.904;2023-02-10T04:13:09;9.23;;;6.60;;
21213;SDS011;10764;50.850;2.904;2023-02-10T04:15:36;9.73;;;6.93;;
21213;SDS011;10764;50.850;2.904;2023-02-10T04:18:03;8.10;;;6.20;;
21213;SDS011;10764;50.850;2.904;2023-02-10T04:20:30;9.55;;;6.70;;
21213;SDS011;10764;50.850;2.904;2023-02-10T04:22:57;8.55;;;6.72;;
21213;SDS011;10764;50.850;2.904;2023-02-10T04:25:24;9.17;;;6.60;;
21213;SDS011;10764;50.850;2.904;2023-02-10T04:27:51;8.90;;;6.88;;
21213;SDS011;10764;50.850;2.904;2023-02-10T04:30:18;9.53;;;6.23;;
21213;SDS011;10764;50.850;2.904;2023-02-10T04:32:44;8.40;;;6.38;;
21213;SDS011;10764;50.850;2.904;2023-02-10T04:35:11;9.40;;;6.80;;
21213;SDS011;10764;50.850;2.904;2023-02-10T04:37:38;8.85;;;6.38;;
21213;SDS011;10764;50.850;2.904;2023-02-10T04:40:05;9.23;;;6.70;;
21213;SDS011;10764;50.850;2.904;2023-02-10T04:42:32;8.15;;;6.38;;
21213;SDS011;10764;50.850;2.904;2023-02-10T04:44:59;9.65;;;6.80;;
21213;SDS011;10764;50.850;2.904;2023-02-10T04:47:26;8.13;;;6.30;;
21213;SDS011;10764;50.850;2.904;2023-02-10T04:49:54;8.80;;;6.60;;
21213;SDS011;10764;50.850;2.904;2023-02-10T04:52:21;9.90;;;6.65;;
21213;SDS011;10764;50.850;2.904;2023-02-10T04:54:47;10.25;;;6.72;;
21213;SDS011;10764;50.850;2.904;2023-02-10T04:57:14;9.40;;;6.82;;
21213;SDS011;10764;50.850;2.904;2023-02-10T04:59:41;10.67;;;6.73;;
21213;SDS011;10764;50.850;2.904;2023-02-10T05:02:08;8.20;;;6.13;;
21213;SDS011;10764;50.850;2.904;2023-02-10T05:04:35;9.10;;;6.82;;
21213;SDS011;10764;50.850;2.904;2023-02-10T05:07:01;7.05;;;5.82;;
21213;SDS011;10764;50.850;2.904;2023-02-10T05:09:28;8.18;;;6.28;;
21213;SDS011;10764;50.850;2.904;2023-02-10T05:11:56;8.32;;;6.38;;
21213;SDS011;10764;50.850;2.904;2023-02-10T05:14:23;9.10;;;6.90;;
21213;SDS011;10764;50.850;2.904;2023-02-10T05:16:49;9.17;;;6.53;;
21213;SDS011;10764;50.850;2.904;2023-02-10T05:19:16;8.48;;;6.57;;
21213;SDS011;10764;50.850;2.904;2023-02-10T05:21:43;8.03;;;6.30;;
21213;SDS011;10764;50.850;2.904;2023-02-10T05:24:10;9.23;;;6.50;;
21213;SDS011;10764;50.850;2.904;2023-02-10T05:26:37;10.10;;;6.57;;
21213;SDS011;10764;50.850;2.904;2023-02-10T05:29:04;9.48;;;6.72;;
21213;SDS011;10764;50.850;2.904;2023-02-10T05:31:30;10.57;;;7.30;;
21213;SDS011;10764;50.850;2.904;2023-02-10T05:33:57;9.00;;;6.35;;
21213;SDS011;10764;50.850;2.904;2023-02-10T05:36:24;8.90;;;6.70;;
21213;SDS011;10764;50.850;2.904;2023-02-10T05:38:53;8.85;;;6.60;;
21213;SDS011;10764;50.850;2.904;2023-02-10T05:41:38;8.63;;;6.85;;
21213;SDS011;10764;50.850;2.904;2023-02-10T05:44:05;9.73;;;6.75;;
21213;SDS011;10764;50.850;2.904;2023-02-10T05:46:32;9.30;;;6.60;;
21213;SDS011;10764;50.850;2.904;2023-02-10T05:48:59;8.43;;;6.60;;
21213;SDS011;10764;50.850;2.904;2023-02-10T05:51:26;9.85;;;6.70;;
21213;SDS011;10764;50.850;2.904;2023-02-10T05:53:52;8.57;;;6.50;;
21213;SDS011;10764;50.850;2.904;2023-02-10T05:56:20;8.50;;;6.43;;
21213;SDS011;10764;50.850;2.904;2023-02-10T05:58:46;9.73;;;6.80;;
21213;SDS011;10764;50.850;2.904;2023-02-10T06:01:13;8.52;;;6.32;;
21213;SDS011;10764;50.850;2.904;2023-02-10T06:03:41;8.63;;;6.43;;
21213;SDS011;10764;50.850;2.904;2023-02-10T06:06:08;9.45;;;6.47;;
21213;SDS011;10764;50.850;2.904;2023-02-10T06:08:35;9.02;;;6.55;;
21213;SDS011;10764;50.850;2.904;2023-02-10T06:11:01;8.52;;;6.53;;
21213;SDS011;10764;50.850;2.904;2023-02-10T06:13:28;8.63;;;6.43;;
21213;SDS011;10764;50.850;2.904;2023-02-10T06:15:55;11.35;;;6.53;;
21213;SDS011;10764;50.850;2.904;2023-02-10T06:18:22;8.80;;;6.45;;
21213;SDS011;10764;50.850;2.904;2023-02-10T06:20:48;8.43;;;6.47;;
21213;SDS011;10764;50.850;2.904;2023-02-10T06:23:17;9.13;;;6.53;;
21213;SDS011;10764;50.850;2.904;2023-02-10T06:25:44;8.93;;;6.68;;
21213;SDS011;10764;50.850;2.904;2023-02-10T06:28:11;8.90;;;6.83;;
21213;SDS011;10764;50.850;2.904;2023-02-10T06:30:37;10.07;;;6.93;;
21213;SDS011;10764;50.850;2.904;2023-02-10T06:33:04;9.05;;;6.43;;
21213;SDS011;10764;50.850;2.904;2023-02-10T06:35:31;9.23;;;6.80;;
21213;SDS011;10764;50.850;2.904;2023-02-10T06:37:58;11.68;;;7.30;;
21213;SDS011;10764;50.850;2.904;2023-02-10T06:40:25;11.35;;;7.15;;
21213;SDS011;10764;50.850;2.904;2023-02-10T06:42:52;8.70;;;7.00;;
21213;SDS011;10764;50.850;2.904;2023-02-10T06:45:19;9.02;;;6.72;;
21213;SDS011;10764;50.850;2.904;2023-02-10T06:47:45;9.48;;;6.68;;
21213;SDS011;10764;50.850;2.904;2023-02-10T06:50:14;10.82;;;6.80;;
21213;SDS011;10764;50.850;2.904;2023-02-10T06:52:41;10.02;;;7.13;;
21213;SDS011;10764;50.850;2.904;2023-02-10T06:55:07;9.63;;;6.90;;
21213;SDS011;10764;50.850;2.904;2023-02-10T06:57:35;9.93;;;7.05;;
21213;SDS011;10764;50.850;2.904;2023-02-10T07:00:03;9.40;;;7.30;;
21213;SDS011;10764;50.850;2.904;2023-02-10T07:02:31;14.07;;;7.85;;
21213;SDS011;10764;50.850;2.904;2023-02-10T07:04:58;14.97;;;8.57;;
21213;SDS011;10764;50.850;2.904;2023-02-10T07:07:25;12.15;;;7.85;;
21213;SDS011;10764;50.850;2.904;2023-02-10T07:09:52;12.65;;;8.43;;
21213;SDS011;10764;50.850;2.904;2023-02-10T07:12:20;15.75;;;10.85;;
21213;SDS011;10764;50.850;2.904;2023-02-10T07:14:47;17.35;;;11.50;;
21213;SDS011;10764;50.850;2.904;2023-02-10T07:17:14;16.63;;;11.03;;
21213;SDS011;10764;50.850;2.904;2023-02-10T07:19:40;19.17;;;12.27;;
21213;SDS011;10764;50.850;2.904;2023-02-10T07:22:07;19.77;;;12.77;;
21213;SDS011;10764;50.850;2.904;2023-02-10T07:24:34;23.85;;;14.10;;
21213;SDS011;10764;50.850;2.904;2023-02-10T07:27:01;24.35;;;15.18;;
21213;SDS011;10764;50.850;2.904;2023-02-10T07:29:29;24.75;;;15.40;;
21213;SDS011;10764;50.850;2.904;2023-02-10T07:31:56;29.97;;;17.67;;
21213;SDS011;10764;50.850;2.904;2023-02-10T07:34:24;33.20;;;19.47;;
21213;SDS011;10764;50.850;2.904;2023-02-10T07:36:52;44.80;;;25.08;;
21213;SDS011;10764;50.850;2.904;2023-02-10T07:39:22;44.63;;;25.98;;
21213;SDS011;10764;50.850;2.904;2023-02-10T07:41:50;46.95;;;26.98;;
21213;SDS011;10764;50.850;2.904;2023-02-10T07:44:19;48.80;;;29.45;;
21213;SDS011;10764;50.850;2.904;2023-02-10T07:46:47;51.83;;;31.77;;
21213;SDS011;10764;50.850;2.904;2023-02-10T07:49:14;57.30;;;33.67;;
21213;SDS011;10764;50.850;2.904;2023-02-10T07:51:41;65.03;;;39.00;;
21213;SDS011;10764;50.850;2.904;2023-02-10T07:54:09;69.50;;;40.03;;
21213;SDS011;10764;50.850;2.904;2023-02-10T07:56:37;67.15;;;40.05;;
21213;SDS011;10764;50.850;2.904;2023-02-10T07:59:04;70.85;;;40.10;;
21213;SDS011;10764;50.850;2.904;2023-02-10T08:01:33;66.70;;;40.00;;
21213;SDS011;10764;50.850;2.904;2023-02-10T08:04:04;69.83;;;41.40;;
21213;SDS011;10764;50.850;2.904;2023-02-10T08:06:30;71.82;;;41.63;;
21213;SDS011;10764;50.850;2.904;2023-02-10T08:08:57;69.87;;;42.10;;
21213;SDS011;10764;50.850;2.904;2023-02-10T08:11:24;76.43;;;44.28;;
21213;SDS011;10764;50.850;2.904;2023-02-10T08:13:51;75.90;;;44.87;;
21213;SDS011;10764;50.850;2.904;2023-02-10T08:16:18;75.72;;;45.45;;
21213;SDS011;10764;50.850;2.904;2023-02-10T08:18:45;76.67;;;45.20;;
21213;SDS011;10764;50.850;2.904;2023-02-10T08:21:11;77.88;;;47.97;;
21213;SDS011;10764;50.850;2.904;2023-02-10T08:23:38;89.03;;;51.20;;
21213;SDS011;10764;50.850;2.904;2023-02-10T08:26:06;88.45;;;52.67;;
21213;SDS011;10764;50.850;2.904;2023-02-10T08:28:35;90.83;;;52.97;;
21213;SDS011;10764;50.850;2.904;2023-02-10T08:31:04;94.05;;;55.75;;
21213;SDS011;10764;50.850;2.904;2023-02-10T08:33:34;96.55;;;56.25;;
21213;SDS011;10764;50.850;2.904;2023-02-10T08:36:13;94.38;;;56.08;;
21213;SDS011;10764;50.850;2.904;2023-02-10T08:38:41;92.72;;;56.28;;
21213;SDS011;10764;50.850;2.904;2023-02-10T08:41:09;100.88;;;57.88;;
21213;SDS011;10764;50.850;2.904;2023-02-10T08:43:35;94.93;;;57.90;;
21213;SDS011;10764;50.850;2.904;2023-02-10T08:46:02;97.93;;;57.75;;
21213;SDS011;10764;50.850;2.904;2023-02-10T08:48:30;101.75;;;59.03;;
21213;SDS011;10764;50.850;2.904;2023-02-10T08:50:57;96.70;;;58.17;;
21213;SDS011;10764;50.850;2.904;2023-02-10T08:53:24;98.93;;;59.65;;
21213;SDS011;10764;50.850;2.904;2023-02-10T08:55:56;102.63;;;61.97;;
21213;SDS011;10764;50.850;2.904;2023-02-10T08:58:27;102.63;;;60.80;;
21213;SDS011;10764;50.850;2.904;2023-02-10T09:00:54;101.82;;;60.80;;
21213;SDS011;10764;50.850;2.904;2023-02-10T09:03:21;103.03;;;60.70;;
21213;SDS011;10764;50.850;2.904;2023-02-10T09:05:48;104.43;;;62.20;;
21213;SDS011;10764;50.850;2.904;2023-02-10T09:08:17;103.07;;;61.55;;
21213;SDS011;10764;50.850;2.904;2023-02-10T09:10:45;108.78;;;63.33;;
21213;SDS011;10764;50.850;2.904;2023-02-10T09:13:12;107.13;;;62.65;;
21213;SDS011;10764;50.850;2.904;2023-02-10T09:15:40;110.87;;;64.27;;
21213;SDS011;10764;50.850;2.904;2023-02-10T09:18:08;119.50;;;69.03;;
21213;SDS011;10764;50.850;2.904;2023-02-10T09:20:36;131.40;;;75.13;;
21213;SDS011;10764;50.850;2.904;2023-02-10T09:23:04;129.77;;;74.17;;
21213;SDS011;10764;50.850;2.904;2023-02-10T09:25:31;133.18;;;76.47;;
21213;SDS011;10764;50.850;2.904;2023-02-10T09:27:58;132.25;;;76.25;;
21213;SDS011;10764;50.850;2.904;2023-02-10T09:30:26;130.15;;;74.57;;
21213;SDS011;10764;50.850;2.904;2023-02-10T09:32:53;132.32;;;75.47;;
21213;SDS011;10764;50.850;2.904;2023-02-10T09:35:20;128.05;;;72.93;;
21213;SDS011;10764;50.850;2.904;2023-02-10T09:37:47;125.27;;;73.37;;
21213;SDS011;10764;50.850;2.904;2023-02-10T09:40:20;124.40;;;73.80;;
21213;SDS011;10764;50.850;2.904;2023-02-10T09:43:12;127.55;;;77.53;;
21213;SDS011;10764;50.850;2.904;2023-02-10T09:45:59;132.32;;;75.35;;
21213;SDS011;10764;50.850;2.904;2023-02-10T09:51:43;127.72;;;73.82;;
21213;SDS011;10764;50.850;2.904;2023-02-10T09:54:32;122.22;;;72.63;;
21213;SDS011;10764;50.850;2.904;2023-02-10T09:57:08;123.63;;;71.03;;
21213;SDS011;10764;50.850;2.904;2023-02-10T09:59:39;121.43;;;71.95;;
21213;SDS011;10764;50.850;2.904;2023-02-10T10:04:44;116.93;;;68.30;;
21213;SDS011;10764;50.850;2.904;2023-02-10T10:07:22;114.70;;;66.35;;
21213;SDS011;10764;50.850;2.904;2023-02-10T10:12:22;112.13;;;68.55;;
21213;SDS011;10764;50.850;2.904;2023-02-10T10:14:49;111.60;;;65.50;;
21213;SDS011;10764;50.850;2.904;2023-02-10T10:20:15;109.93;;;65.10;;
21213;SDS011;10764;50.850;2.904;2023-02-10T10:26:02;104.43;;;62.83;;
21213;SDS011;10764;50.850;2.904;2023-02-10T10:31:30;100.32;;;62.10;;
21213;SDS011;10764;50.850;2.904;2023-02-10T10:34:13;102.70;;;61.05;;
21213;SDS011;10764;50.850;2.904;2023-02-10T10:36:45;103.47;;;61.67;;
21213;SDS011;10764;50.850;2.904;2023-02-10T10:39:14;101.60;;;60.73;;
21213;SDS011;10764;50.850;2.904;2023-02-10T10:41:55;100.13;;;61.78;;
21213;SDS011;10764;50.850;2.904;2023-02-10T10:44:24;96.38;;;58.60;;
21213;SDS011;10764;50.850;2.904;2023-02-10T10:47:03;99.93;;;59.97;;
21213;SDS011;10764;50.850;2.904;2023-02-10T10:49:43;104.15;;;62.25;;
21213;SDS011;10764;50.850;2.904;2023-02-10T10:52:30;110.80;;;64.80;;
21213;SDS011;10764;50.850;2.904;2023-02-10T10:55:01;104.97;;;64.40;;
21213;SDS011;10764;50.850;2.904;2023-02-10T10:57:36;116.40;;;72.30;;
21213;SDS011;10764;50.850;2.904;2023-02-10T11:00:22;113.90;;;69.07;;
21213;SDS011;10764;50.850;2.904;2023-02-10T11:02:56;108.65;;;66.90;;
21213;SDS011;10764;50.850;2.904;2023-02-10T11:05:35;111.85;;;69.05;;
21213;SDS011;10764;50.850;2.904;2023-02-10T11:08:04;113.45;;;68.88;;
21213;SDS011;10764;50.850;2.904;2023-02-10T11:10:35;111.23;;;69.13;;
21213;SDS011;10764;50.850;2.904;2023-02-10T11:13:03;111.30;;;66.80;;
21213;SDS011;10764;50.850;2.904;2023-02-10T11:15:37;105.40;;;66.78;;
21213;SDS011;10764;50.850;2.904;2023-02-10T11:18:07;104.72;;;65.53;;
21213;SDS011;10764;50.850;2.904;2023-02-10T11:20:50;100.53;;;64.83;;
21213;SDS011;10764;50.850;2.904;2023-02-10T11:23:19;103.03;;;63.20;;
21213;SDS011;10764;50.850;2.904;2023-02-10T11:25:47;104.32;;;64.05;;
21213;SDS011;10764;50.850;2.904;2023-02-10T11:28:24;101.28;;;64.00;;
21213;SDS011;10764;50.850;2.904;2023-02-10T11:33:56;98.47;;;60.95;;
21213;SDS011;10764;50.850;2.904;2023-02-10T11:36:30;97.07;;;59.80;;
21213;SDS011;10764;50.850;2.904;2023-02-10T11:39:04;97.35;;;59.10;;
21213;SDS011;10764;50.850;2.904;2023-02-10T11:41:41;100.43;;;60.67;;
21213;SDS011;10764;50.850;2.904;2023-02-10T11:44:27;97.82;;;59.85;;
21213;SDS011;10764;50.850;2.904;2023-02-10T11:46:57;97.13;;;58.40;;
21213;SDS011;10764;50.850;2.904;2023-02-10T11:49:29;95.57;;;58.42;;
21213;SDS011;10764;50.850;2.904;2023-02-10T11:51:59;91.95;;;57.03;;
21213;SDS011;10764;50.850;2.904;2023-02-10T11:54:29;92.05;;;56.28;;
21213;SDS011;10764;50.850;2.904;2023-02-10T12:14:01;87.90;;;52.58;;
21213;SDS011;10764;50.850;2.904;2023-02-10T12:16:51;89.55;;;53.55;;
21213;SDS011;10764;50.850;2.904;2023-02-10T12:27:57;91.13;;;53.47;;
21213;SDS011;10764;50.850;2.904;2023-02-10T12:36:34;97.35;;;56.25;;
21213;SDS011;10764;50.850;2.904;2023-02-10T12:47:39;97.60;;;55.88;;
21213;SDS011;10764;50.850;2.904;2023-02-10T12:50:35;97.07;;;54.42;;
21213;SDS011;10764;50.850;2.904;2023-02-10T12:53:19;100.32;;;55.40;;
21213;SDS011;10764;50.850;2.904;2023-02-10T12:55:59;97.00;;;54.85;;
21213;SDS011;10764;50.850;2.904;2023-02-10T12:59:00;93.55;;;53.08;;
21213;SDS011;10764;50.850;2.904;2023-02-10T13:01:38;96.78;;;53.35;;
21213;SDS011;10764;50.850;2.904;2023-02-10T13:14:54;81.95;;;47.35;;
21213;SDS011;10764;50.850;2.904;2023-02-10T13:17:42;77.90;;;45.65;;
21213;SDS011;10764;50.850;2.904;2023-02-10T13:20:22;81.90;;;47.17;;
21213;SDS011;10764;50.850;2.904;2023-02-10T13:22:55;79.18;;;45.22;;
21213;SDS011;10764;50.850;2.904;2023-02-10T13:28:31;79.95;;;44.22;;
21213;SDS011;10764;50.850;2.904;2023-02-10T13:36:10;78.23;;;43.60;;
21213;SDS011;10764;50.850;2.904;2023-02-10T13:38:59;76.10;;;42.13;;
21213;SDS011;10764;50.850;2.904;2023-02-10T13:41:34;73.40;;;41.80;;
21213;SDS011;10764;50.850;2.904;2023-02-10T13:47:14;70.85;;;40.35;;
21213;SDS011;10764;50.850;2.904;2023-02-10T13:49:58;68.25;;;39.42;;
21213;SDS011;10764;50.850;2.904;2023-02-10T13:52:32;68.10;;;38.75;;
21213;SDS011;10764;50.850;2.904;2023-02-10T13:55:04;64.40;;;37.63;;
21213;SDS011;10764;50.850;2.904;2023-02-10T13:57:55;65.55;;;38.22;;
21213;SDS011;10764;50.850;2.904;2023-02-10T14:00:45;63.42;;;36.67;;
21213;SDS011;10764;50.850;2.904;2023-02-10T14:03:22;61.05;;;36.13;;
21213;SDS011;10764;50.850;2.904;2023-02-10T14:08:37;63.72;;;35.40;;
21213;SDS011;10764;50.850;2.904;2023-02-10T14:11:25;60.70;;;35.10;;
21213;SDS011;10764;50.850;2.904;2023-02-10T14:14:21;58.95;;;34.20;;
21213;SDS011;10764;50.850;2.904;2023-02-10T14:17:02;58.92;;;34.15;;
21213;SDS011;10764;50.850;2.904;2023-02-10T14:19:47;57.30;;;33.63;;
21213;SDS011;10764;50.850;2.904;2023-02-10T14:22:22;56.87;;;33.20;;
21213;SDS011;10764;50.850;2.904;2023-02-10T14:24:52;56.90;;;32.10;;
21213;SDS011;10764;50.850;2.904;2023-02-10T14:27:21;55.63;;;31.90;;
21213;SDS011;10764;50.850;2.904;2023-02-10T14:29:51;53.90;;;31.98;;
21213;SDS011;10764;50.850;2.904;2023-02-10T14:32:21;54.80;;;30.83;;
21213;SDS011;10764;50.850;2.904;2023-02-10T14:34:53;55.20;;;30.73;;
21213;SDS011;10764;50.850;2.904;2023-02-10T14:37:22;50.85;;;29.85;;
21213;SDS011;10764;50.850;2.904;2023-02-10T14:39:51;49.33;;;30.40;;
21213;SDS011;10764;50.850;2.904;2023-02-10T14:42:20;51.40;;;29.60;;
21213;SDS011;10764;50.850;2.904;2023-02-10T14:44:49;48.72;;;29.00;;
21213;SDS011;10764;50.850;2.904;2023-02-10T14:47:18;48.67;;;29.13;;
21213;SDS011;10764;50.850;2.904;2023-02-10T14:49:54;47.97;;;27.63;;
21213;SDS011;10764;50.850;2.904;2023-02-10T14:52:27;49.28;;;28.02;;
21213;SDS011;10764;50.850;2.904;2023-02-10T14:58:04;48.60;;;27.85;;
21213;SDS011;10764;50.850;2.904;2023-02-10T15:00:40;42.33;;;26.42;;
21213;SDS011;10764;50.850;2.904;2023-02-10T15:03:18;43.50;;;25.95;;
21213;SDS011;10764;50.850;2.904;2023-02-10T15:05:46;44.30;;;25.77;;
21213;SDS011;10764;50.850;2.904;2023-02-10T15:08:18;43.30;;;25.50;;
21213;SDS011;10764;50.850;2.904;2023-02-10T15:10:51;43.30;;;25.02;;
21213;SDS011;10764;50.850;2.904;2023-02-10T15:13:22;38.72;;;23.88;;
21213;SDS011;10764;50.850;2.904;2023-02-10T15:16:00;40.85;;;24.35;;
21213;SDS011;10764;50.850;2.904;2023-02-10T15:18:29;39.53;;;23.05;;
21213;SDS011;10764;50.850;2.904;2023-02-10T15:20:59;39.20;;;23.55;;
21213;SDS011;10764;50.850;2.904;2023-02-10T15:23:28;38.90;;;23.40;;
21213;SDS011;10764;50.850;2.904;2023-02-10T15:28:45;37.42;;;21.70;;
21213;SDS011;10764;50.850;2.904;2023-02-10T15:31:26;34.83;;;21.08;;
21213;SDS011;10764;50.850;2.904;2023-02-10T15:33:55;37.47;;;20.83;;
21213;SDS011;10764;50.850;2.904;2023-02-10T15:38:59;36.45;;;20.92;;
21213;SDS011;10764;50.850;2.904;2023-02-10T15:41:44;34.65;;;20.25;;
21213;SDS011;10764;50.850;2.904;2023-02-10T15:45:16;31.90;;;19.52;;
21213;SDS011;10764;50.850;2.904;2023-02-10T15:47:27;29.55;;;18.52;;
21213;SDS011;10764;50.850;2.904;2023-02-10T15:50:15;31.17;;;19.15;;
21213;SDS011;10764;50.850;2.904;2023-02-10T15:52:46;35.50;;;19.73;;
21213;SDS011;10764;50.850;2.904;2023-02-10T15:55:15;30.85;;;18.08;;
21213;SDS011;10764;50.850;2.904;2023-02-10T15:57:45;30.27;;;18.05;;
21213;SDS011;10764;50.850;2.904;2023-02-10T16:00:17;29.33;;;17.77;;
21213;SDS011;10764;50.850;2.904;2023-02-10T16:02:52;28.07;;;17.30;;
21213;SDS011;10764;50.850;2.904;2023-02-10T16:05:20;27.67;;;16.77;;
21213;SDS011;10764;50.850;2.904;2023-02-10T16:07:48;29.52;;;17.92;;
21213;SDS011;10764;50.850;2.904;2023-02-10T16:10:18;26.55;;;16.67;;
21213;SDS011;10764;50.850;2.904;2023-02-10T16:12:47;27.85;;;16.50;;
21213;SDS011;10764;50.850;2.904;2023-02-10T16:15:15;26.45;;;16.40;;
21213;SDS011;10764;50.850;2.904;2023-02-10T16:17:45;26.40;;;15.85;;
21213;SDS011;10764;50.850;2.904;2023-02-10T16:20:15;25.75;;;15.27;;
21213;SDS011;10764;50.850;2.904;2023-02-10T16:22:45;27.77;;;15.07;;
21213;SDS011;10764;50.850;2.904;2023-02-10T16:25:14;27.43;;;16.17;;
21213;SDS011;10764;50.850;2.904;2023-02-10T16:27:42;27.75;;;15.60;;
21213;SDS011;10764;50.850;2.904;2023-02-10T16:30:13;27.92;;;14.48;;
21213;SDS011;10764;50.850;2.904;2023-02-10T16:32:42;25.05;;;13.90;;
21213;SDS011;10764;50.850;2.904;2023-02-10T16:35:09;27.15;;;14.52;;
21213;SDS011;10764;50.850;2.904;2023-02-10T16:37:36;27.58;;;14.18;;
21213;SDS011;10764;50.850;2.904;2023-02-10T16:40:03;25.02;;;14.02;;
21213;SDS011;10764;50.850;2.904;2023-02-10T16:42:30;22.95;;;13.15;;
21213;SDS011;10764;50.850;2.904;2023-02-10T16:44:57;26.47;;;13.53;;
21213;SDS011;10764;50.850;2.904;2023-02-10T16:47:24;26.13;;;13.45;;
21213;SDS011;10764;50.850;2.904;2023-02-10T16:49:51;22.65;;;12.85;;
21213;SDS011;10764;50.850;2.904;2023-02-10T16:52:18;25.98;;;12.90;;
21213;SDS011;10764;50.850;2.904;2023-02-10T16:54:48;25.50;;;12.77;;